createdAt,value
2022-08-17T00:00:01.713Z,14.68
2022-08-17T00:03:08.568Z,11.70
2022-08-17T00:05:45.149Z,12.82
2022-08-17T00:08:14.920Z,12.52
2022-08-17T00:10:43.978Z,11.90
2022-08-17T00:13:33.486Z,13.30
2022-08-17T00:16:09.302Z,12.88
2022-08-17T00:18:58.403Z,14.05
2022-08-17T00:21:25.515Z,11.18
2022-08-17T00:23:54.116Z,11.18
2022-08-17T00:26:43.503Z,12.73
2022-08-17T00:29:10.452Z,12.88
2022-08-17T00:31:47.352Z,11.48
2022-08-17T00:34:14.798Z,12.52
2022-08-17T00:36:41.984Z,14.45
2022-08-17T00:39:09.258Z,14.07
2022-08-17T00:41:36.826Z,12.50
2022-08-17T00:44:12.362Z,12.25
2022-08-17T00:46:42.281Z,13.98
2022-08-17T00:49:11.999Z,13.23
2022-08-17T00:51:43.467Z,18.75
2022-08-17T00:54:42.101Z,14.88
2022-08-17T00:57:15.286Z,14.10
2022-08-17T01:00:01.792Z,13.18
2022-08-17T01:02:41.183Z,14.15
2022-08-17T01:05:23.988Z,14.00
2022-08-17T01:07:53.945Z,13.35
2022-08-17T01:11:00.335Z,13.15
2022-08-17T01:13:27.271Z,17.27
2022-08-17T01:16:03.457Z,12.73
2022-08-17T01:18:32.374Z,12.20
2022-08-17T01:21:07.347Z,14.90
2022-08-17T01:23:34.627Z,12.70
2022-08-17T01:26:05.541Z,12.48
2022-08-17T01:28:53.385Z,17.40
2022-08-17T01:31:28.106Z,12.82
2022-08-17T01:33:55.910Z,14.10
2022-08-17T01:36:23.187Z,13.38
2022-08-17T01:38:50.653Z,12.93
2022-08-17T01:41:21.671Z,17.25
2022-08-17T01:43:57.423Z,15.52
2022-08-17T01:46:27.759Z,17.88
2022-08-17T01:48:56.400Z,20.38
2022-08-17T01:51:27.685Z,18.33
2022-08-17T01:53:58.334Z,17.00
2022-08-17T01:56:27.030Z,21.38
2022-08-17T01:58:54.265Z,24.20
2022-08-17T02:01:26.583Z,23.02
2022-08-17T02:04:00.943Z,19.17
2022-08-17T02:06:52.831Z,20.90
2022-08-17T02:09:29.879Z,21.70
2022-08-17T02:11:59.738Z,21.85
2022-08-17T02:14:32.050Z,21.65
2022-08-17T02:16:59.479Z,26.70
2022-08-17T02:19:26.669Z,24.58
2022-08-17T02:21:54.604Z,24.20
2022-08-17T02:25:00.252Z,24.73
2022-08-17T02:27:14.256Z,22.08
2022-08-17T02:29:41.697Z,21.25
2022-08-17T02:32:27.268Z,19.75
2022-08-17T02:34:57.597Z,19.48
2022-08-17T02:37:26.090Z,19.35
2022-08-17T02:39:53.359Z,17.92
2022-08-17T02:42:27.938Z,19.30
2022-08-17T02:44:55.275Z,14.95
2022-08-17T02:47:23.004Z,16.45
2022-08-17T02:49:54.313Z,16.30
2022-08-17T02:52:42.443Z,16.08
2022-08-17T02:55:26.002Z,14.93
2022-08-17T02:57:54.211Z,16.42
2022-08-17T03:00:26.879Z,14.48
2022-08-17T03:02:56.693Z,14.45
2022-08-17T03:05:26.603Z,15.90
2022-08-17T03:07:53.947Z,19.17
2022-08-17T03:10:22.286Z,17.50
2022-08-17T03:12:50.459Z,15.93
2022-08-17T03:15:22.823Z,14.50
2022-08-17T03:17:50.638Z,15.18
2022-08-17T03:20:18.986Z,14.80
2022-08-17T03:22:53.458Z,16.27
2022-08-17T03:25:25.447Z,17.50
2022-08-17T03:30:22.595Z,13.85
2022-08-17T03:32:52.842Z,12.60
2022-08-17T03:35:23.118Z,13.18
2022-08-17T03:37:52.417Z,12.90
2022-08-17T03:40:39.902Z,12.30
2022-08-17T03:43:17.123Z,12.48
2022-08-17T03:46:03.177Z,10.82
2022-08-17T03:48:49.879Z,11.07
2022-08-17T03:51:41.757Z,12.23
2022-08-17T03:54:29.180Z,12.55
2022-08-17T03:57:09.146Z,11.68
2022-08-17T03:59:38.052Z,11.25
2022-08-17T04:02:17.635Z,14.07
2022-08-17T04:04:45.189Z,10.48
2022-08-17T04:07:12.787Z,15.68
2022-08-17T04:09:40.154Z,15.15
2022-08-17T04:12:07.749Z,14.85
2022-08-17T04:14:53.286Z,12.18
2022-08-17T04:17:27.932Z,11.93
2022-08-17T04:19:55.559Z,10.82
2022-08-17T04:22:32.233Z,12.73
2022-08-17T04:25:18.338Z,14.35
2022-08-17T04:27:45.841Z,12.65
2022-08-17T04:30:13.886Z,12.32
2022-08-17T04:33:04.018Z,12.27
2022-08-17T04:35:40.101Z,10.73
2022-08-17T04:38:09.623Z,11.85
2022-08-17T04:40:55.616Z,12.90
2022-08-17T04:43:25.975Z,13.25
2022-08-17T04:45:57.119Z,11.80
2022-08-17T04:48:37.543Z,9.93
2022-08-17T04:51:08.337Z,11.25
2022-08-17T04:53:35.734Z,10.95
2022-08-17T04:56:03.135Z,10.30
2022-08-17T04:58:30.605Z,8.93
2022-08-17T05:00:57.976Z,10.70
2022-08-17T05:03:25.236Z,10.85
2022-08-17T05:05:53.799Z,11.48
2022-08-17T05:08:21.419Z,10.25
2022-08-17T05:10:49.871Z,10.75
2022-08-17T05:13:21.734Z,10.38
2022-08-17T05:15:50.510Z,7.95
2022-08-17T05:18:17.724Z,8.18
2022-08-17T05:20:45.521Z,9.70
2022-08-17T05:23:16.782Z,10.25
2022-08-17T05:26:25.589Z,8.63
2022-08-17T05:29:00.463Z,8.73
2022-08-17T05:31:30.454Z,9.60
2022-08-17T05:33:58.390Z,10.27
2022-08-17T05:36:42.546Z,9.00
2022-08-17T05:39:16.479Z,8.82
2022-08-17T05:41:48.248Z,10.20
2022-08-17T05:44:16.352Z,8.75
2022-08-17T05:46:49.136Z,9.93
2022-08-17T05:49:23.440Z,8.55
2022-08-17T05:52:09.489Z,8.32
2022-08-17T05:55:00.581Z,7.60
2022-08-17T05:57:54.064Z,7.93
2022-08-17T06:00:30.907Z,9.05
2022-08-17T06:03:29.277Z,8.77
2022-08-17T06:06:40.767Z,10.13
2022-08-17T06:09:35.171Z,7.47
2022-08-17T06:12:24.308Z,8.52
2022-08-17T06:15:07.525Z,7.65
2022-08-17T06:17:36.779Z,7.38
2022-08-17T06:20:10.327Z,6.50
2022-08-17T06:22:44.637Z,8.90
2022-08-17T06:25:26.554Z,8.70
2022-08-17T06:27:59.561Z,8.75
2022-08-17T06:30:36.744Z,6.68
2022-08-17T06:33:24.409Z,7.45
2022-08-17T06:36:17.585Z,6.85
2022-08-17T06:39:30.508Z,7.93
2022-08-17T06:43:02.054Z,6.95
2022-08-17T06:45:13.599Z,9.60
2022-08-17T06:48:18.931Z,6.93
2022-08-17T06:50:51.191Z,6.03
2022-08-17T06:53:24.589Z,6.22
2022-08-17T06:56:11.580Z,5.80
2022-08-17T06:58:41.764Z,7.85
2022-08-17T07:01:19.262Z,7.28
2022-08-17T07:03:53.639Z,6.13
2022-08-17T07:06:24.183Z,17.60
2022-08-17T07:08:55.538Z,8.90
2022-08-17T07:11:45.751Z,11.32
2022-08-17T07:14:31.855Z,8.70
2022-08-17T07:17:02.808Z,8.02
2022-08-17T07:19:33.006Z,5.38
2022-08-17T07:24:51.690Z,4.32
2022-08-17T07:27:21.447Z,5.13
2022-08-17T07:29:51.813Z,4.55
2022-08-17T07:32:23.277Z,5.32
2022-08-17T07:35:10.757Z,4.20
2022-08-17T07:37:41.258Z,4.18
2022-08-17T07:40:27.176Z,5.75
2022-08-17T07:43:21.845Z,5.82
2022-08-17T07:46:12.606Z,6.00
2022-08-17T07:48:43.598Z,10.38
2022-08-17T07:51:25.368Z,10.45
2022-08-17T07:54:13.617Z,4.80
2022-08-17T07:57:01.766Z,5.00
2022-08-17T07:59:34.045Z,5.43
2022-08-17T08:02:15.761Z,4.80
2022-08-17T08:05:00.558Z,5.03
2022-08-17T08:07:50.753Z,6.28
2022-08-17T08:10:36.853Z,4.68
2022-08-17T08:13:12.240Z,7.18
2022-08-17T08:15:44.976Z,7.45
2022-08-17T08:18:54.392Z,5.68
2022-08-17T08:21:24.463Z,5.47
2022-08-17T08:24:30.154Z,6.63
2022-08-17T08:27:10.687Z,5.45
2022-08-17T08:29:44.077Z,8.23
2022-08-17T08:32:29.859Z,6.82
2022-08-17T08:35:15.625Z,6.00
2022-08-17T08:38:00.634Z,7.57
2022-08-17T08:40:49.808Z,8.32
2022-08-17T08:44:00.878Z,8.43
2022-08-17T08:46:42.508Z,9.23
2022-08-17T08:49:29.835Z,6.50
2022-08-17T08:52:22.896Z,16.98
2022-08-17T08:54:53.915Z,8.85
2022-08-17T08:57:33.431Z,8.20
2022-08-17T09:00:04.761Z,7.63
2022-08-17T09:03:02.722Z,5.43
2022-08-17T09:05:57.045Z,8.55
2022-08-17T09:08:36.735Z,7.40
2022-08-17T09:11:06.621Z,4.78
2022-08-17T09:13:56.388Z,9.77
2022-08-17T09:16:29.918Z,5.60
2022-08-17T09:19:08.583Z,8.82
2022-08-17T09:21:47.934Z,5.47
2022-08-17T09:24:21.011Z,7.18
2022-08-17T09:27:08.460Z,8.20
2022-08-17T09:29:42.952Z,6.82
2022-08-17T09:32:19.604Z,5.97
2022-08-17T09:34:55.027Z,10.40
2022-08-17T09:37:39.957Z,10.57
2022-08-17T09:40:15.574Z,15.68
2022-08-17T09:42:48.659Z,8.50
2022-08-17T09:45:24.204Z,6.07
2022-08-17T09:48:18.492Z,8.57
2022-08-17T09:51:04.669Z,6.78
2022-08-17T09:53:36.284Z,7.50
2022-08-17T09:56:12.531Z,7.38
2022-08-17T09:59:16.967Z,7.60
2022-08-17T10:01:55.561Z,9.27
2022-08-17T10:04:47.864Z,7.68
2022-08-17T10:07:30.599Z,7.55
2022-08-17T10:10:14.359Z,6.28
2022-08-17T10:13:50.984Z,5.82
2022-08-17T10:16:40.575Z,7.78
2022-08-17T10:19:26.850Z,6.88
2022-08-17T10:22:34.765Z,9.13
2022-08-17T10:25:24.867Z,8.35
2022-08-17T10:28:05.226Z,8.27
2022-08-17T10:30:36.798Z,5.53
2022-08-17T10:33:23.725Z,8.00
2022-08-17T10:36:07.462Z,6.78
2022-08-17T10:38:46.266Z,6.65
2022-08-17T10:41:40.571Z,6.07
2022-08-17T10:44:39.802Z,6.72
2022-08-17T10:47:15.535Z,10.07
2022-08-17T10:49:49.729Z,6.50
2022-08-17T10:52:20.130Z,7.38
2022-08-17T10:54:58.717Z,5.33
2022-08-17T10:57:29.326Z,12.90
2022-08-17T10:59:58.996Z,9.32
2022-08-17T11:02:54.189Z,6.88
2022-08-17T11:05:46.333Z,8.35
2022-08-17T11:08:38.568Z,8.63
2022-08-17T11:11:39.051Z,11.88
2022-08-17T11:14:27.380Z,6.97
2022-08-17T11:17:01.471Z,7.38
2022-08-17T11:19:49.671Z,10.52
2022-08-17T11:22:37.396Z,8.23
2022-08-17T11:25:47.264Z,8.10
2022-08-17T11:28:19.458Z,9.38
2022-08-17T11:30:54.590Z,8.38
2022-08-17T11:33:38.295Z,8.50
2022-08-17T11:36:31.548Z,7.82
2022-08-17T11:39:36.329Z,11.45
2022-08-17T11:42:06.235Z,8.13
2022-08-17T11:44:47.517Z,7.63
2022-08-17T11:50:40.450Z,8.07
2022-08-17T11:53:37.293Z,9.20
2022-08-17T11:56:30.301Z,7.10
2022-08-17T11:58:58.921Z,7.25
2022-08-17T12:01:29.413Z,8.40
2022-08-17T12:04:19.263Z,7.97
2022-08-17T12:06:52.317Z,9.48
2022-08-17T12:09:24.984Z,9.27
2022-08-17T12:12:12.081Z,7.13
2022-08-17T12:15:11.793Z,9.05
2022-08-17T12:17:42.844Z,7.70
2022-08-17T12:20:32.925Z,6.20
2022-08-17T12:23:12.114Z,10.52
2022-08-17T12:25:47.740Z,13.35
2022-08-17T12:28:31.449Z,12.68
2022-08-17T12:31:08.015Z,11.82
2022-08-17T12:33:42.546Z,11.02
2022-08-17T12:36:15.604Z,8.48
2022-08-17T12:39:14.070Z,28.05
2022-08-17T12:41:48.315Z,7.18
2022-08-17T12:44:33.554Z,6.75
2022-08-17T12:47:19.449Z,8.93
2022-08-17T12:53:35.311Z,10.37
2022-08-17T12:56:09.444Z,10.65
2022-08-17T12:58:47.619Z,9.55
2022-08-17T13:01:17.065Z,8.07
2022-08-17T13:03:51.201Z,7.50
2022-08-17T13:06:32.441Z,13.18
2022-08-17T13:09:19.353Z,9.60
2022-08-17T13:11:53.139Z,7.22
2022-08-17T13:14:20.404Z,7.35
2022-08-17T13:16:50.699Z,8.70
2022-08-17T13:19:40.539Z,8.10
2022-08-17T13:22:12.676Z,9.43
2022-08-17T13:24:53.211Z,7.57
2022-08-17T13:27:23.104Z,7.43
2022-08-17T13:29:54.074Z,6.70
2022-08-17T13:35:14.413Z,6.45
2022-08-17T13:37:58.221Z,10.05
2022-08-17T13:40:31.231Z,7.50
2022-08-17T13:42:58.893Z,6.18
2022-08-17T13:45:36.191Z,9.40
2022-08-17T13:48:11.896Z,10.73
2022-08-17T13:50:56.286Z,9.50
2022-08-17T13:53:36.973Z,6.80
2022-08-17T13:56:34.981Z,6.65
2022-08-17T13:59:00.297Z,6.32
2022-08-17T14:01:36.184Z,8.63
2022-08-17T14:04:10.283Z,6.88
2022-08-17T14:06:51.799Z,6.68
2022-08-17T14:09:23.457Z,8.45
2022-08-17T14:11:51.881Z,7.30
2022-08-17T14:14:19.413Z,8.05
2022-08-17T14:16:46.866Z,10.75
2022-08-17T14:19:14.993Z,8.40
2022-08-17T14:21:44.422Z,10.35
2022-08-17T14:24:27.528Z,9.32
2022-08-17T14:26:54.908Z,9.63
2022-08-17T14:29:24.616Z,8.32
2022-08-17T14:31:53.374Z,8.48
2022-08-17T14:34:23.217Z,8.98
2022-08-17T14:36:52.147Z,9.55
2022-08-17T14:39:19.742Z,8.80
2022-08-17T14:41:47.241Z,9.13
2022-08-17T14:44:14.843Z,10.57
2022-08-17T14:46:43.803Z,10.65
2022-08-17T14:49:13.141Z,11.77
2022-08-17T14:51:43.876Z,10.52
2022-08-17T14:54:32.636Z,8.30
2022-08-17T14:57:26.062Z,10.68
2022-08-17T14:59:54.714Z,11.75
2022-08-17T15:02:30.251Z,9.57
2022-08-17T15:05:04.099Z,10.27
2022-08-17T15:07:31.841Z,13.77
2022-08-17T15:10:01.568Z,9.95
2022-08-17T15:12:33.225Z,12.27
2022-08-17T15:15:05.442Z,26.05
2022-08-17T15:20:26.420Z,16.50
2022-08-17T15:22:57.482Z,13.27
2022-08-17T15:25:27.673Z,16.65
2022-08-17T15:27:56.023Z,12.90
2022-08-17T15:30:25.763Z,12.45
2022-08-17T15:32:55.207Z,13.40
2022-08-17T15:35:29.884Z,8.98
2022-08-17T15:38:10.562Z,8.45
2022-08-17T15:43:11.634Z,10.75
2022-08-17T15:45:39.770Z,8.95
2022-08-17T15:48:07.367Z,9.35
2022-08-17T15:50:35.490Z,9.13
2022-08-17T15:53:04.909Z,9.68
2022-08-17T15:55:33.778Z,8.63
2022-08-17T15:58:01.635Z,10.73
2022-08-17T16:00:30.094Z,9.18
2022-08-17T16:03:45.219Z,9.90
2022-08-17T16:05:50.296Z,11.73
2022-08-17T16:08:21.382Z,8.80
2022-08-17T16:13:18.368Z,9.20
2022-08-17T16:15:57.305Z,11.73
2022-08-17T16:18:30.978Z,10.95
2022-08-17T16:21:23.137Z,9.75
2022-08-17T16:24:13.599Z,9.95
2022-08-17T16:26:42.534Z,9.07
2022-08-17T16:29:10.489Z,12.05
2022-08-17T16:31:37.923Z,9.57
2022-08-17T16:34:16.753Z,11.35
2022-08-17T16:36:54.722Z,11.90
2022-08-17T16:39:28.965Z,10.70
2022-08-17T16:41:57.745Z,10.23
2022-08-17T16:44:27.554Z,9.48
2022-08-17T16:46:54.779Z,10.27
2022-08-17T16:49:35.657Z,12.77
2022-08-17T16:52:07.711Z,10.75
2022-08-17T16:54:38.561Z,14.85
2022-08-17T16:57:05.960Z,13.20
2022-08-17T16:59:40.811Z,11.25
2022-08-17T17:02:14.717Z,14.50
2022-08-17T17:04:56.334Z,11.52
2022-08-17T17:07:49.881Z,12.10
2022-08-17T17:10:21.183Z,17.25
2022-08-17T17:13:03.195Z,14.35
2022-08-17T17:15:53.608Z,14.88
2022-08-17T17:18:30.501Z,12.65
2022-08-17T17:20:58.305Z,12.57
2022-08-17T17:23:48.453Z,14.93
2022-08-17T17:26:56.744Z,17.90
2022-08-17T17:29:47.745Z,13.68
2022-08-17T17:32:17.332Z,15.30
2022-08-17T17:34:51.052Z,17.27
2022-08-17T17:37:27.416Z,16.52
2022-08-17T17:39:59.958Z,14.98
2022-08-17T17:42:31.590Z,18.05
2022-08-17T17:45:12.500Z,18.30
2022-08-17T17:47:40.280Z,15.05
2022-08-17T17:50:08.514Z,16.27
2022-08-17T17:52:47.571Z,17.13
2022-08-17T17:55:36.898Z,17.38
2022-08-17T17:58:22.259Z,16.05
2022-08-17T18:01:10.369Z,19.42
2022-08-17T18:03:57.408Z,18.67
2022-08-17T18:06:39.860Z,18.80
2022-08-17T18:09:34.173Z,16.25
2022-08-17T18:12:12.112Z,19.60
2022-08-17T18:15:00.787Z,22.33
2022-08-17T18:17:29.745Z,18.38
2022-08-17T18:19:57.277Z,20.20
2022-08-17T18:22:25.398Z,20.85
2022-08-17T18:24:57.721Z,22.33
2022-08-17T18:27:40.866Z,23.75
2022-08-17T18:30:14.504Z,26.38
2022-08-17T18:32:43.765Z,24.35
2022-08-17T18:35:11.178Z,22.60
2022-08-17T18:38:08.725Z,21.65
2022-08-17T18:40:37.788Z,22.55
2022-08-17T18:43:12.461Z,22.90
2022-08-17T18:45:45.922Z,25.63
2022-08-17T18:48:26.569Z,23.77
2022-08-17T18:50:57.875Z,27.20
2022-08-17T18:53:31.726Z,29.02
2022-08-17T18:56:20.370Z,28.15
2022-08-17T18:59:11.005Z,31.02
2022-08-17T19:01:59.304Z,28.20
2022-08-17T19:04:39.433Z,27.15
2022-08-17T19:07:25.210Z,31.17
2022-08-17T19:10:19.699Z,30.40
2022-08-17T19:13:12.192Z,30.35
2022-08-17T19:16:10.132Z,26.65
2022-08-17T19:18:50.441Z,29.33
2022-08-17T19:21:43.414Z,26.00
2022-08-17T19:24:22.785Z,32.55
2022-08-17T19:26:55.940Z,30.80
2022-08-17T19:29:34.887Z,27.98
2022-08-17T19:32:03.237Z,26.98
2022-08-17T19:34:34.998Z,28.30
2022-08-17T19:37:17.530Z,28.23
2022-08-17T19:40:51.104Z,28.65
2022-08-17T19:43:30.726Z,26.20
2022-08-17T19:46:26.282Z,31.15
2022-08-17T19:49:16.367Z,26.27
2022-08-17T19:52:10.762Z,28.98
2022-08-17T19:54:52.484Z,26.95
2022-08-17T19:57:55.128Z,26.67
2022-08-17T20:00:22.709Z,26.65
2022-08-17T20:02:50.148Z,25.50
2022-08-17T20:05:24.063Z,26.15
2022-08-17T20:07:55.466Z,28.23
2022-08-17T20:10:37.002Z,28.80
2022-08-17T20:13:09.656Z,32.72
2022-08-17T20:15:40.863Z,29.98
2022-08-17T20:20:47.769Z,29.08
2022-08-17T20:23:36.583Z,32.58
2022-08-17T20:26:17.154Z,31.15
2022-08-17T20:29:37.776Z,29.08
2022-08-17T20:32:22.410Z,27.40
2022-08-17T20:35:04.310Z,28.85
2022-08-17T20:37:35.131Z,33.88
2022-08-17T20:40:09.304Z,32.50
2022-08-17T20:42:37.267Z,32.83
2022-08-17T20:45:26.437Z,30.38
2022-08-17T20:48:27.268Z,33.03
2022-08-17T20:50:59.299Z,35.10
2022-08-17T20:53:48.378Z,29.80
2022-08-17T20:56:43.925Z,29.20
2022-08-17T20:59:26.727Z,35.38
2022-08-17T21:02:12.346Z,29.13
2022-08-17T21:04:51.666Z,29.60
2022-08-17T21:07:43.565Z,29.38
2022-08-17T21:10:32.775Z,29.52
2022-08-17T21:13:13.487Z,28.08
2022-08-17T21:15:57.131Z,30.17
2022-08-17T21:18:39.153Z,28.17
2022-08-17T21:21:34.284Z,26.45
2022-08-17T21:24:41.569Z,25.65
2022-08-17T21:27:39.545Z,28.25
2022-08-17T21:30:10.011Z,28.75
2022-08-17T21:32:41.959Z,29.92
2022-08-17T21:35:28.652Z,29.57
2022-08-17T21:38:02.451Z,29.73
2022-08-17T21:40:32.967Z,28.85
2022-08-17T21:43:15.849Z,32.20
2022-08-17T21:45:44.145Z,35.50
2022-08-17T21:48:19.689Z,30.85
2022-08-17T21:51:03.819Z,29.23
2022-08-17T21:53:44.026Z,28.50
2022-08-17T21:56:19.731Z,31.63
2022-08-17T21:58:53.489Z,28.17
2022-08-17T22:01:33.410Z,27.25
2022-08-17T22:04:11.620Z,28.83
2022-08-17T22:06:43.243Z,25.33
2022-08-17T22:09:48.868Z,25.35
2022-08-17T22:12:19.808Z,30.95
2022-08-17T22:15:09.637Z,30.85
2022-08-17T22:17:45.326Z,26.75
2022-08-17T22:20:17.487Z,25.15
2022-08-17T22:23:23.361Z,25.88
2022-08-17T22:26:00.227Z,28.13
2022-08-17T22:28:52.872Z,28.52
2022-08-17T22:31:23.598Z,25.77
2022-08-17T22:34:00.191Z,26.95
2022-08-17T22:36:35.150Z,24.17
2022-08-17T22:39:08.640Z,26.73
2022-08-17T22:41:41.884Z,27.60
2022-08-17T22:44:23.679Z,26.98
2022-08-17T22:46:59.507Z,23.35
2022-08-17T22:49:35.399Z,25.42
2022-08-17T22:52:21.396Z,27.25
2022-08-17T22:55:09.307Z,23.60
2022-08-17T22:57:55.710Z,29.80
2022-08-17T23:00:37.614Z,23.40
2022-08-17T23:03:11.127Z,23.92
2022-08-17T23:05:43.039Z,24.77
2022-08-17T23:08:12.706Z,23.50
2022-08-17T23:10:41.831Z,23.10
2022-08-17T23:13:12.080Z,21.80
2022-08-17T23:15:40.799Z,22.25
2022-08-17T23:18:08.307Z,24.38
2022-08-17T23:20:37.462Z,29.35
2022-08-17T23:23:06.970Z,32.63
2022-08-17T23:25:35.726Z,30.52
2022-08-17T23:28:06.027Z,33.42
2022-08-17T23:30:36.939Z,33.25
2022-08-17T23:33:07.701Z,35.50
2022-08-17T23:35:38.898Z,36.00
2022-08-17T23:38:13.011Z,33.05
2022-08-17T23:40:41.088Z,38.83
2022-08-17T23:43:24.412Z,43.10
2022-08-17T23:45:54.884Z,37.30
2022-08-17T23:48:35.044Z,39.85
2022-08-17T23:51:14.619Z,35.42
2022-08-17T23:53:46.293Z,38.58
2022-08-17T23:56:14.516Z,37.55
2022-08-17T23:58:43.790Z,34.88
